Angeles, Puerto Rico
Current Conditions -  °F | °C
As of 10:50 PM on Friday 31 Oct 2014 (Local Time) from TJBQ Reporting Station
Clear Clear  
Wind Chill: 75°   Ceiling: Unl
Heat Index: 75°   Visibility: 10mi
Dew Point: 73°   Wind: 5mph
Humidity: 94%   Direction: 160°SSE
Pressure: 29.95"   Gusts: NA
Location:  18.29°N, 66.97°W
Report Text: TJBQ 010250Z 16004KT 10SM SKC 24/23 A2995 RMK LTG DSNT W RWY08 -ATIS B
Loading
Personal Weather Stations






























Interactive Weather Map New forecast layout! Learn more

10-Day Weather Forecast

Advertisements
Track Severe Weather on mobile